sensor_id;sensor_type;location;lat;lon;timestamp;P1;durP1;ratioP1;P2;durP2;ratioP2
2934;SDS011;2462;51.456;7.248;2022-07-23T00:00:44;10.53;;;7.63;;
2934;SDS011;2462;51.456;7.248;2022-07-23T00:03:11;10.40;;;6.60;;
2934;SDS011;2462;51.456;7.248;2022-07-23T00:05:37;13.30;;;7.33;;
2934;SDS011;2462;51.456;7.248;2022-07-23T00:08:03;10.30;;;7.40;;
2934;SDS011;2462;51.456;7.248;2022-07-23T00:10:30;10.27;;;7.70;;
2934;SDS011;2462;51.456;7.248;2022-07-23T00:12:55;14.60;;;8.10;;
2934;SDS011;2462;51.456;7.248;2022-07-23T00:15:21;12.57;;;7.70;;
2934;SDS011;2462;51.456;7.248;2022-07-23T00:17:46;10.10;;;7.30;;
2934;SDS011;2462;51.456;7.248;2022-07-23T00:20:12;8.93;;;7.40;;
2934;SDS011;2462;51.456;7.248;2022-07-23T00:22:48;7.60;;;6.73;;
2934;SDS011;2462;51.456;7.248;2022-07-23T00:25:18;11.47;;;7.70;;
2934;SDS011;2462;51.456;7.248;2022-07-23T00:27:45;9.50;;;7.93;;
2934;SDS011;2462;51.456;7.248;2022-07-23T00:30:11;12.00;;;8.33;;
2934;SDS011;2462;51.456;7.248;2022-07-23T00:32:51;11.63;;;7.30;;
2934;SDS011;2462;51.456;7.248;2022-07-23T00:35:21;9.80;;;7.33;;
2934;SDS011;2462;51.456;7.248;2022-07-23T00:37:48;9.13;;;8.17;;
2934;SDS011;2462;51.456;7.248;2022-07-23T00:40:13;12.63;;;8.73;;
2934;SDS011;2462;51.456;7.248;2022-07-23T00:42:39;12.37;;;8.70;;
2934;SDS011;2462;51.456;7.248;2022-07-23T00:45:05;9.77;;;7.43;;
2934;SDS011;2462;51.456;7.248;2022-07-23T00:47:31;11.20;;;8.47;;
2934;SDS011;2462;51.456;7.248;2022-07-23T00:49:56;10.40;;;9.10;;
2934;SDS011;2462;51.456;7.248;2022-07-23T00:52:22;12.07;;;8.50;;
2934;SDS011;2462;51.456;7.248;2022-07-23T00:54:48;10.70;;;8.40;;
2934;SDS011;2462;51.456;7.248;2022-07-23T00:57:13;10.47;;;8.70;;
2934;SDS011;2462;51.456;7.248;2022-07-23T00:59:39;10.50;;;8.37;;
2934;SDS011;2462;51.456;7.248;2022-07-23T01:02:05;14.00;;;9.20;;
2934;SDS011;2462;51.456;7.248;2022-07-23T01:04:31;11.53;;;7.97;;
2934;SDS011;2462;51.456;7.248;2022-07-23T01:06:56;11.20;;;9.07;;
2934;SDS011;2462;51.456;7.248;2022-07-23T01:09:22;17.07;;;9.30;;
2934;SDS011;2462;51.456;7.248;2022-07-23T01:11:48;11.60;;;9.20;;
2934;SDS011;2462;51.456;7.248;2022-07-23T01:14:15;13.10;;;8.60;;
2934;SDS011;2462;51.456;7.248;2022-07-23T01:16:42;11.70;;;8.30;;
2934;SDS011;2462;51.456;7.248;2022-07-23T01:19:10;13.10;;;9.30;;
2934;SDS011;2462;51.456;7.248;2022-07-23T01:21:36;11.20;;;9.13;;
2934;SDS011;2462;51.456;7.248;2022-07-23T01:24:04;12.63;;;8.90;;
2934;SDS011;2462;51.456;7.248;2022-07-23T01:26:30;12.30;;;7.90;;
2934;SDS011;2462;51.456;7.248;2022-07-23T01:28:56;12.43;;;8.90;;
2934;SDS011;2462;51.456;7.248;2022-07-23T01:31:22;12.50;;;9.27;;
2934;SDS011;2462;51.456;7.248;2022-07-23T01:33:47;15.43;;;10.10;;
2934;SDS011;2462;51.456;7.248;2022-07-23T01:36:13;15.53;;;10.30;;
2934;SDS011;2462;51.456;7.248;2022-07-23T01:38:38;14.03;;;8.83;;
2934;SDS011;2462;51.456;7.248;2022-07-23T01:41:04;11.70;;;10.20;;
2934;SDS011;2462;51.456;7.248;2022-07-23T01:43:29;14.00;;;10.27;;
2934;SDS011;2462;51.456;7.248;2022-07-23T01:45:55;14.37;;;9.60;;
2934;SDS011;2462;51.456;7.248;2022-07-23T01:48:20;17.00;;;11.53;;
2934;SDS011;2462;51.456;7.248;2022-07-23T01:50:47;12.67;;;10.20;;
2934;SDS011;2462;51.456;7.248;2022-07-23T01:53:13;17.13;;;11.20;;
2934;SDS011;2462;51.456;7.248;2022-07-23T01:55:39;14.73;;;10.30;;
2934;SDS011;2462;51.456;7.248;2022-07-23T01:58:05;13.80;;;10.33;;
2934;SDS011;2462;51.456;7.248;2022-07-23T02:00:30;15.73;;;11.10;;
2934;SDS011;2462;51.456;7.248;2022-07-23T02:02:56;15.97;;;11.33;;
2934;SDS011;2462;51.456;7.248;2022-07-23T02:05:23;16.40;;;11.30;;
2934;SDS011;2462;51.456;7.248;2022-07-23T02:07:54;13.37;;;11.37;;
2934;SDS011;2462;51.456;7.248;2022-07-23T02:10:20;16.03;;;11.83;;
2934;SDS011;2462;51.456;7.248;2022-07-23T02:12:46;14.37;;;11.13;;
2934;SDS011;2462;51.456;7.248;2022-07-23T02:15:11;15.97;;;11.10;;
2934;SDS011;2462;51.456;7.248;2022-07-23T02:17:37;17.93;;;11.93;;
2934;SDS011;2462;51.456;7.248;2022-07-23T02:20:03;17.43;;;11.33;;
2934;SDS011;2462;51.456;7.248;2022-07-23T02:22:30;14.53;;;11.00;;
2934;SDS011;2462;51.456;7.248;2022-07-23T02:24:56;15.17;;;11.47;;
2934;SDS011;2462;51.456;7.248;2022-07-23T02:27:21;22.83;;;11.17;;
2934;SDS011;2462;51.456;7.248;2022-07-23T02:29:48;15.80;;;11.40;;
2934;SDS011;2462;51.456;7.248;2022-07-23T02:32:13;17.43;;;11.33;;
2934;SDS011;2462;51.456;7.248;2022-07-23T02:34:39;17.40;;;10.60;;
2934;SDS011;2462;51.456;7.248;2022-07-23T02:37:04;15.50;;;12.07;;
2934;SDS011;2462;51.456;7.248;2022-07-23T02:39:30;16.00;;;10.73;;
2934;SDS011;2462;51.456;7.248;2022-07-23T02:41:55;14.40;;;10.87;;
2934;SDS011;2462;51.456;7.248;2022-07-23T02:44:21;14.43;;;11.17;;
2934;SDS011;2462;51.456;7.248;2022-07-23T02:46:46;15.50;;;11.60;;
2934;SDS011;2462;51.456;7.248;2022-07-23T02:49:12;20.90;;;11.80;;
2934;SDS011;2462;51.456;7.248;2022-07-23T02:51:37;19.40;;;11.40;;
2934;SDS011;2462;51.456;7.248;2022-07-23T02:54:03;15.10;;;11.80;;
2934;SDS011;2462;51.456;7.248;2022-07-23T02:56:28;16.03;;;12.00;;
2934;SDS011;2462;51.456;7.248;2022-07-23T02:58:54;15.30;;;10.87;;
2934;SDS011;2462;51.456;7.248;2022-07-23T03:01:19;14.30;;;11.60;;
2934;SDS011;2462;51.456;7.248;2022-07-23T03:03:45;17.17;;;10.93;;
2934;SDS011;2462;51.456;7.248;2022-07-23T03:06:11;15.53;;;10.33;;
2934;SDS011;2462;51.456;7.248;2022-07-23T03:08:36;12.77;;;9.90;;
2934;SDS011;2462;51.456;7.248;2022-07-23T03:11:02;15.20;;;10.60;;
2934;SDS011;2462;51.456;7.248;2022-07-23T03:13:28;16.43;;;10.50;;
2934;SDS011;2462;51.456;7.248;2022-07-23T03:15:54;15.93;;;10.43;;
2934;SDS011;2462;51.456;7.248;2022-07-23T03:18:19;13.57;;;11.10;;
2934;SDS011;2462;51.456;7.248;2022-07-23T03:20:45;17.37;;;11.87;;
2934;SDS011;2462;51.456;7.248;2022-07-23T03:23:11;14.10;;;11.30;;
2934;SDS011;2462;51.456;7.248;2022-07-23T03:25:37;15.10;;;10.97;;
2934;SDS011;2462;51.456;7.248;2022-07-23T03:28:02;15.23;;;11.73;;
2934;SDS011;2462;51.456;7.248;2022-07-23T03:30:28;16.47;;;10.70;;
2934;SDS011;2462;51.456;7.248;2022-07-23T03:32:54;18.60;;;11.77;;
2934;SDS011;2462;51.456;7.248;2022-07-23T03:35:19;17.87;;;12.50;;
2934;SDS011;2462;51.456;7.248;2022-07-23T03:37:45;16.80;;;12.10;;
2934;SDS011;2462;51.456;7.248;2022-07-23T03:40:10;12.60;;;10.70;;
2934;SDS011;2462;51.456;7.248;2022-07-23T03:42:36;13.10;;;11.40;;
2934;SDS011;2462;51.456;7.248;2022-07-23T03:45:03;16.67;;;11.70;;
2934;SDS011;2462;51.456;7.248;2022-07-23T03:47:29;15.77;;;12.53;;
2934;SDS011;2462;51.456;7.248;2022-07-23T03:49:54;15.20;;;11.23;;
2934;SDS011;2462;51.456;7.248;2022-07-23T03:52:20;15.60;;;11.70;;
2934;SDS011;2462;51.456;7.248;2022-07-23T03:54:45;17.40;;;11.57;;
2934;SDS011;2462;51.456;7.248;2022-07-23T03:57:11;16.67;;;12.70;;
2934;SDS011;2462;51.456;7.248;2022-07-23T03:59:36;17.57;;;11.20;;
2934;SDS011;2462;51.456;7.248;2022-07-23T04:02:02;12.40;;;10.80;;
2934;SDS011;2462;51.456;7.248;2022-07-23T04:04:27;15.67;;;11.67;;
2934;SDS011;2462;51.456;7.248;2022-07-23T04:06:53;18.30;;;11.70;;
2934;SDS011;2462;51.456;7.248;2022-07-23T04:09:18;17.87;;;12.40;;
2934;SDS011;2462;51.456;7.248;2022-07-23T04:11:44;14.63;;;11.90;;
2934;SDS011;2462;51.456;7.248;2022-07-23T04:14:09;12.03;;;10.73;;
2934;SDS011;2462;51.456;7.248;2022-07-23T04:16:35;16.20;;;11.50;;
2934;SDS011;2462;51.456;7.248;2022-07-23T04:19:00;14.77;;;11.23;;
2934;SDS011;2462;51.456;7.248;2022-07-23T04:21:26;13.10;;;10.80;;
2934;SDS011;2462;51.456;7.248;2022-07-23T04:23:51;15.27;;;12.20;;
2934;SDS011;2462;51.456;7.248;2022-07-23T04:26:17;16.27;;;12.10;;
2934;SDS011;2462;51.456;7.248;2022-07-23T04:28:42;16.90;;;12.63;;
2934;SDS011;2462;51.456;7.248;2022-07-23T04:31:08;16.97;;;12.40;;
2934;SDS011;2462;51.456;7.248;2022-07-23T04:33:33;18.67;;;12.70;;
2934;SDS011;2462;51.456;7.248;2022-07-23T04:35:59;15.83;;;11.63;;
2934;SDS011;2462;51.456;7.248;2022-07-23T04:38:24;17.27;;;11.70;;
2934;SDS011;2462;51.456;7.248;2022-07-23T04:40:50;12.60;;;11.27;;
2934;SDS011;2462;51.456;7.248;2022-07-23T04:43:15;15.40;;;11.83;;
2934;SDS011;2462;51.456;7.248;2022-07-23T04:45:41;14.47;;;10.83;;
2934;SDS011;2462;51.456;7.248;2022-07-23T04:48:06;12.43;;;11.00;;
2934;SDS011;2462;51.456;7.248;2022-07-23T04:50:32;12.00;;;10.00;;
2934;SDS011;2462;51.456;7.248;2022-07-23T04:52:57;13.27;;;10.97;;
2934;SDS011;2462;51.456;7.248;2022-07-23T04:55:23;11.37;;;9.80;;
2934;SDS011;2462;51.456;7.248;2022-07-23T04:57:49;10.63;;;9.23;;
2934;SDS011;2462;51.456;7.248;2022-07-23T05:00:14;15.83;;;10.87;;
2934;SDS011;2462;51.456;7.248;2022-07-23T05:02:40;16.87;;;10.20;;
2934;SDS011;2462;51.456;7.248;2022-07-23T05:05:06;14.17;;;11.17;;
2934;SDS011;2462;51.456;7.248;2022-07-23T05:07:32;13.90;;;11.50;;
2934;SDS011;2462;51.456;7.248;2022-07-23T05:09:57;15.17;;;11.57;;
2934;SDS011;2462;51.456;7.248;2022-07-23T05:12:23;13.33;;;11.97;;
2934;SDS011;2462;51.456;7.248;2022-07-23T05:14:48;15.47;;;12.27;;
2934;SDS011;2462;51.456;7.248;2022-07-23T05:17:14;15.47;;;12.70;;
2934;SDS011;2462;51.456;7.248;2022-07-23T05:19:39;16.47;;;13.30;;
2934;SDS011;2462;51.456;7.248;2022-07-23T05:22:05;14.90;;;12.97;;
2934;SDS011;2462;51.456;7.248;2022-07-23T05:24:30;15.73;;;11.60;;
2934;SDS011;2462;51.456;7.248;2022-07-23T05:26:56;22.67;;;12.17;;
2934;SDS011;2462;51.456;7.248;2022-07-23T05:29:21;20.33;;;13.20;;
2934;SDS011;2462;51.456;7.248;2022-07-23T05:31:47;20.53;;;14.40;;
2934;SDS011;2462;51.456;7.248;2022-07-23T05:34:12;17.40;;;13.47;;
2934;SDS011;2462;51.456;7.248;2022-07-23T05:36:38;18.97;;;12.60;;
2934;SDS011;2462;51.456;7.248;2022-07-23T05:39:03;15.27;;;12.10;;
2934;SDS011;2462;51.456;7.248;2022-07-23T05:41:29;18.63;;;14.10;;
2934;SDS011;2462;51.456;7.248;2022-07-23T05:43:54;18.83;;;13.17;;
2934;SDS011;2462;51.456;7.248;2022-07-23T05:46:20;18.43;;;13.37;;
2934;SDS011;2462;51.456;7.248;2022-07-23T05:48:45;20.30;;;13.47;;
2934;SDS011;2462;51.456;7.248;2022-07-23T05:51:18;16.30;;;12.70;;
2934;SDS011;2462;51.456;7.248;2022-07-23T05:53:45;18.50;;;13.30;;
2934;SDS011;2462;51.456;7.248;2022-07-23T05:56:11;19.47;;;13.47;;
2934;SDS011;2462;51.456;7.248;2022-07-23T05:58:36;17.63;;;13.97;;
2934;SDS011;2462;51.456;7.248;2022-07-23T06:01:02;19.90;;;13.90;;
2934;SDS011;2462;51.456;7.248;2022-07-23T06:03:27;23.43;;;15.33;;
2934;SDS011;2462;51.456;7.248;2022-07-23T06:05:53;23.33;;;16.47;;
2934;SDS011;2462;51.456;7.248;2022-07-23T06:08:19;19.70;;;15.90;;
2934;SDS011;2462;51.456;7.248;2022-07-23T06:10:45;24.20;;;15.60;;
2934;SDS011;2462;51.456;7.248;2022-07-23T06:13:10;21.17;;;15.43;;
2934;SDS011;2462;51.456;7.248;2022-07-23T06:15:36;21.90;;;16.70;;
2934;SDS011;2462;51.456;7.248;2022-07-23T06:18:01;24.33;;;17.77;;
2934;SDS011;2462;51.456;7.248;2022-07-23T06:20:27;23.53;;;17.93;;
2934;SDS011;2462;51.456;7.248;2022-07-23T06:22:53;21.27;;;16.13;;
2934;SDS011;2462;51.456;7.248;2022-07-23T06:25:18;26.27;;;18.43;;
2934;SDS011;2462;51.456;7.248;2022-07-23T06:27:45;28.60;;;17.70;;
2934;SDS011;2462;51.456;7.248;2022-07-23T06:30:11;23.97;;;16.90;;
2934;SDS011;2462;51.456;7.248;2022-07-23T06:32:37;22.87;;;15.73;;
2934;SDS011;2462;51.456;7.248;2022-07-23T06:35:03;27.40;;;17.30;;
2934;SDS011;2462;51.456;7.248;2022-07-23T06:37:29;24.57;;;18.40;;
2934;SDS011;2462;51.456;7.248;2022-07-23T06:39:54;25.47;;;18.33;;
2934;SDS011;2462;51.456;7.248;2022-07-23T06:42:20;29.13;;;19.63;;
2934;SDS011;2462;51.456;7.248;2022-07-23T06:44:46;28.47;;;18.30;;
2934;SDS011;2462;51.456;7.248;2022-07-23T06:47:11;25.10;;;16.90;;
2934;SDS011;2462;51.456;7.248;2022-07-23T06:49:37;25.37;;;18.30;;
2934;SDS011;2462;51.456;7.248;2022-07-23T06:52:03;32.40;;;19.93;;
2934;SDS011;2462;51.456;7.248;2022-07-23T06:54:28;25.90;;;19.83;;
2934;SDS011;2462;51.456;7.248;2022-07-23T06:56:54;23.27;;;18.90;;
2934;SDS011;2462;51.456;7.248;2022-07-23T06:59:19;23.77;;;18.30;;
2934;SDS011;2462;51.456;7.248;2022-07-23T07:01:45;26.87;;;18.70;;
2934;SDS011;2462;51.456;7.248;2022-07-23T07:04:10;22.77;;;18.40;;
2934;SDS011;2462;51.456;7.248;2022-07-23T07:06:36;25.60;;;18.30;;
2934;SDS011;2462;51.456;7.248;2022-07-23T07:09:02;34.30;;;20.90;;
2934;SDS011;2462;51.456;7.248;2022-07-23T07:11:27;29.53;;;19.00;;
2934;SDS011;2462;51.456;7.248;2022-07-23T07:13:53;31.53;;;19.80;;
2934;SDS011;2462;51.456;7.248;2022-07-23T07:16:18;28.93;;;19.17;;
2934;SDS011;2462;51.456;7.248;2022-07-23T07:18:44;26.40;;;17.83;;
2934;SDS011;2462;51.456;7.248;2022-07-23T07:21:10;29.07;;;19.17;;
2934;SDS011;2462;51.456;7.248;2022-07-23T07:23:35;25.53;;;19.13;;
2934;SDS011;2462;51.456;7.248;2022-07-23T07:26:01;31.03;;;18.07;;
2934;SDS011;2462;51.456;7.248;2022-07-23T07:28:26;31.03;;;18.57;;
2934;SDS011;2462;51.456;7.248;2022-07-23T07:30:52;24.97;;;18.20;;
2934;SDS011;2462;51.456;7.248;2022-07-23T07:33:17;24.77;;;17.63;;
2934;SDS011;2462;51.456;7.248;2022-07-23T07:35:43;24.20;;;17.90;;
2934;SDS011;2462;51.456;7.248;2022-07-23T07:38:08;26.70;;;19.30;;
2934;SDS011;2462;51.456;7.248;2022-07-23T07:40:34;27.23;;;19.13;;
2934;SDS011;2462;51.456;7.248;2022-07-23T07:43:00;27.87;;;19.87;;
2934;SDS011;2462;51.456;7.248;2022-07-23T07:45:26;28.30;;;19.53;;
2934;SDS011;2462;51.456;7.248;2022-07-23T07:47:52;21.30;;;17.10;;
2934;SDS011;2462;51.456;7.248;2022-07-23T07:50:18;23.37;;;16.60;;
2934;SDS011;2462;51.456;7.248;2022-07-23T07:52:44;26.80;;;18.90;;
2934;SDS011;2462;51.456;7.248;2022-07-23T07:55:10;25.20;;;17.67;;
2934;SDS011;2462;51.456;7.248;2022-07-23T07:57:36;24.10;;;18.27;;
2934;SDS011;2462;51.456;7.248;2022-07-23T08:00:02;21.10;;;16.80;;
2934;SDS011;2462;51.456;7.248;2022-07-23T08:02:29;27.93;;;18.60;;
2934;SDS011;2462;51.456;7.248;2022-07-23T08:05:18;23.77;;;17.57;;
2934;SDS011;2462;51.456;7.248;2022-07-23T08:07:44;23.97;;;17.27;;
2934;SDS011;2462;51.456;7.248;2022-07-23T08:10:10;26.03;;;17.07;;
2934;SDS011;2462;51.456;7.248;2022-07-23T08:15:09;22.07;;;17.40;;
2934;SDS011;2462;51.456;7.248;2022-07-23T08:17:35;19.93;;;16.27;;
2934;SDS011;2462;51.456;7.248;2022-07-23T08:20:01;17.73;;;15.23;;
2934;SDS011;2462;51.456;7.248;2022-07-23T08:22:41;20.43;;;15.60;;
2934;SDS011;2462;51.456;7.248;2022-07-23T08:25:07;18.00;;;13.80;;
2934;SDS011;2462;51.456;7.248;2022-07-23T08:27:33;15.80;;;14.10;;
2934;SDS011;2462;51.456;7.248;2022-07-23T08:29:59;17.00;;;13.23;;
2934;SDS011;2462;51.456;7.248;2022-07-23T08:32:24;15.20;;;13.60;;
2934;SDS011;2462;51.456;7.248;2022-07-23T08:34:50;15.80;;;11.73;;
2934;SDS011;2462;51.456;7.248;2022-07-23T08:37:15;12.77;;;11.47;;
2934;SDS011;2462;51.456;7.248;2022-07-23T08:39:41;14.07;;;10.10;;
2934;SDS011;2462;51.456;7.248;2022-07-23T08:42:06;11.17;;;9.97;;
2934;SDS011;2462;51.456;7.248;2022-07-23T08:44:33;13.97;;;11.07;;
2934;SDS011;2462;51.456;7.248;2022-07-23T08:47:00;18.27;;;12.23;;
2934;SDS011;2462;51.456;7.248;2022-07-23T08:49:26;14.13;;;11.60;;
2934;SDS011;2462;51.456;7.248;2022-07-23T08:51:54;13.67;;;12.17;;
2934;SDS011;2462;51.456;7.248;2022-07-23T08:54:20;14.97;;;13.37;;
2934;SDS011;2462;51.456;7.248;2022-07-23T08:56:47;16.57;;;14.13;;
2934;SDS011;2462;51.456;7.248;2022-07-23T08:59:13;15.90;;;14.30;;
2934;SDS011;2462;51.456;7.248;2022-07-23T09:01:39;15.20;;;13.80;;
2934;SDS011;2462;51.456;7.248;2022-07-23T09:04:04;20.27;;;17.73;;
2934;SDS011;2462;51.456;7.248;2022-07-23T09:06:30;16.80;;;15.20;;
2934;SDS011;2462;51.456;7.248;2022-07-23T09:08:55;20.47;;;18.27;;
2934;SDS011;2462;51.456;7.248;2022-07-23T09:11:21;18.30;;;16.67;;
2934;SDS011;2462;51.456;7.248;2022-07-23T09:13:50;18.13;;;16.33;;
2934;SDS011;2462;51.456;7.248;2022-07-23T09:16:25;19.70;;;17.80;;
2934;SDS011;2462;51.456;7.248;2022-07-23T09:18:54;20.73;;;18.47;;
2934;SDS011;2462;51.456;7.248;2022-07-23T09:21:25;19.30;;;17.50;;
2934;SDS011;2462;51.456;7.248;2022-07-23T09:26:33;20.33;;;16.93;;
2934;SDS011;2462;51.456;7.248;2022-07-23T09:29:07;18.00;;;16.07;;
2934;SDS011;2462;51.456;7.248;2022-07-23T09:31:42;17.77;;;15.90;;
2934;SDS011;2462;51.456;7.248;2022-07-23T09:34:11;16.27;;;14.63;;
2934;SDS011;2462;51.456;7.248;2022-07-23T09:36:40;17.63;;;15.90;;
2934;SDS011;2462;51.456;7.248;2022-07-23T09:39:06;20.73;;;15.70;;
2934;SDS011;2462;51.456;7.248;2022-07-23T09:41:36;17.63;;;15.77;;
2934;SDS011;2462;51.456;7.248;2022-07-23T09:44:11;16.97;;;15.27;;
2934;SDS011;2462;51.456;7.248;2022-07-23T09:46:39;17.60;;;15.90;;
2934;SDS011;2462;51.456;7.248;2022-07-23T09:49:13;18.07;;;16.27;;
2934;SDS011;2462;51.456;7.248;2022-07-23T09:51:46;17.20;;;15.43;;
2934;SDS011;2462;51.456;7.248;2022-07-23T09:54:21;16.43;;;14.93;;
2934;SDS011;2462;51.456;7.248;2022-07-23T09:56:51;17.57;;;15.70;;
2934;SDS011;2462;51.456;7.248;2022-07-23T09:59:17;15.97;;;13.90;;
2934;SDS011;2462;51.456;7.248;2022-07-23T10:01:47;15.20;;;13.67;;
2934;SDS011;2462;51.456;7.248;2022-07-23T10:04:12;13.87;;;12.57;;
2934;SDS011;2462;51.456;7.248;2022-07-23T10:06:39;14.23;;;12.83;;
2934;SDS011;2462;51.456;7.248;2022-07-23T10:09:06;12.43;;;11.20;;
2934;SDS011;2462;51.456;7.248;2022-07-23T10:11:33;13.60;;;12.10;;
2934;SDS011;2462;51.456;7.248;2022-07-23T10:14:00;12.87;;;11.33;;
2934;SDS011;2462;51.456;7.248;2022-07-23T10:16:28;12.20;;;10.90;;
2934;SDS011;2462;51.456;7.248;2022-07-23T10:18:54;13.40;;;9.50;;
2934;SDS011;2462;51.456;7.248;2022-07-23T10:26:46;9.13;;;8.07;;
2934;SDS011;2462;51.456;7.248;2022-07-23T10:35:31;7.00;;;6.30;;
2934;SDS011;2462;51.456;7.248;2022-07-23T10:38:11;7.60;;;5.57;;
2934;SDS011;2462;51.456;7.248;2022-07-23T10:43:38;6.10;;;5.60;;
2934;SDS011;2462;51.456;7.248;2022-07-23T10:46:24;8.53;;;6.50;;
2934;SDS011;2462;51.456;7.248;2022-07-23T10:54:49;7.07;;;6.37;;
2934;SDS011;2462;51.456;7.248;2022-07-23T10:57:48;6.20;;;5.60;;
2934;SDS011;2462;51.456;7.248;2022-07-23T11:00:15;10.03;;;7.57;;
2934;SDS011;2462;51.456;7.248;2022-07-23T11:02:45;7.80;;;6.03;;
2934;SDS011;2462;51.456;7.248;2022-07-23T11:05:14;7.23;;;6.30;;
2934;SDS011;2462;51.456;7.248;2022-07-23T11:10:35;8.83;;;5.73;;
2934;SDS011;2462;51.456;7.248;2022-07-23T11:16:30;19.87;;;7.57;;
2934;SDS011;2462;51.456;7.248;2022-07-23T11:26:50;5.30;;;4.53;;
2934;SDS011;2462;51.456;7.248;2022-07-23T11:31:56;6.20;;;4.60;;
2934;SDS011;2462;51.456;7.248;2022-07-23T11:34:42;4.10;;;3.70;;
2934;SDS011;2462;51.456;7.248;2022-07-23T11:37:09;6.10;;;4.10;;
2934;SDS011;2462;51.456;7.248;2022-07-23T11:39:37;5.87;;;3.60;;
2934;SDS011;2462;51.456;7.248;2022-07-23T11:42:04;5.03;;;4.53;;
2934;SDS011;2462;51.456;7.248;2022-07-23T11:44:38;5.00;;;4.27;;
2934;SDS011;2462;51.456;7.248;2022-07-23T11:47:05;9.90;;;4.50;;
2934;SDS011;2462;51.456;7.248;2022-07-23T11:49:32;6.60;;;4.00;;
2934;SDS011;2462;51.456;7.248;2022-07-23T11:52:08;6.33;;;4.63;;
2934;SDS011;2462;51.456;7.248;2022-07-23T11:54:52;4.60;;;4.10;;
2934;SDS011;2462;51.456;7.248;2022-07-23T11:57:20;5.20;;;4.40;;
2934;SDS011;2462;51.456;7.248;2022-07-23T11:59:51;4.50;;;4.10;;
2934;SDS011;2462;51.456;7.248;2022-07-23T12:02:20;5.70;;;4.50;;
2934;SDS011;2462;51.456;7.248;2022-07-23T12:04:47;5.70;;;4.13;;
2934;SDS011;2462;51.456;7.248;2022-07-23T12:07:32;5.63;;;4.10;;
2934;SDS011;2462;51.456;7.248;2022-07-23T12:15:07;6.50;;;3.73;;
2934;SDS011;2462;51.456;7.248;2022-07-23T12:17:36;3.80;;;3.50;;
2934;SDS011;2462;51.456;7.248;2022-07-23T12:20:04;5.80;;;4.10;;
2934;SDS011;2462;51.456;7.248;2022-07-23T12:22:35;9.90;;;3.60;;
2934;SDS011;2462;51.456;7.248;2022-07-23T12:25:12;4.10;;;3.67;;
2934;SDS011;2462;51.456;7.248;2022-07-23T12:27:42;4.23;;;2.63;;
2934;SDS011;2462;51.456;7.248;2022-07-23T12:32:52;3.30;;;3.00;;
2934;SDS011;2462;51.456;7.248;2022-07-23T12:35:19;4.40;;;3.13;;
2934;SDS011;2462;51.456;7.248;2022-07-23T12:37:47;3.80;;;3.30;;
2934;SDS011;2462;51.456;7.248;2022-07-23T12:43:00;5.23;;;2.70;;
2934;SDS011;2462;51.456;7.248;2022-07-23T12:45:47;5.73;;;3.03;;
2934;SDS011;2462;51.456;7.248;2022-07-23T12:48:16;4.13;;;3.43;;
2934;SDS011;2462;51.456;7.248;2022-07-23T12:50:47;4.50;;;4.10;;
2934;SDS011;2462;51.456;7.248;2022-07-23T12:58:26;7.83;;;4.87;;
2934;SDS011;2462;51.456;7.248;2022-07-23T13:03:27;6.80;;;4.43;;
2934;SDS011;2462;51.456;7.248;2022-07-23T13:05:55;8.50;;;4.97;;
2934;SDS011;2462;51.456;7.248;2022-07-23T13:08:21;4.70;;;4.00;;
2934;SDS011;2462;51.456;7.248;2022-07-23T13:10:47;7.13;;;3.73;;
2934;SDS011;2462;51.456;7.248;2022-07-23T13:13:16;5.33;;;3.40;;
2934;SDS011;2462;51.456;7.248;2022-07-23T13:15:45;12.00;;;3.63;;
2934;SDS011;2462;51.456;7.248;2022-07-23T13:18:11;6.33;;;3.30;;
2934;SDS011;2462;51.456;7.248;2022-07-23T13:20:36;7.53;;;4.43;;
2934;SDS011;2462;51.456;7.248;2022-07-23T13:23:04;8.17;;;3.67;;
2934;SDS011;2462;51.456;7.248;2022-07-23T13:25:30;4.77;;;3.70;;
2934;SDS011;2462;51.456;7.248;2022-07-23T13:27:56;3.57;;;3.27;;
2934;SDS011;2462;51.456;7.248;2022-07-23T13:30:21;3.17;;;2.77;;
2934;SDS011;2462;51.456;7.248;2022-07-23T13:32:47;4.37;;;3.30;;
2934;SDS011;2462;51.456;7.248;2022-07-23T13:35:13;5.13;;;3.30;;
2934;SDS011;2462;51.456;7.248;2022-07-23T13:37:39;4.03;;;2.63;;
2934;SDS011;2462;51.456;7.248;2022-07-23T13:40:05;4.07;;;3.03;;
2934;SDS011;2462;51.456;7.248;2022-07-23T13:42:31;4.20;;;3.23;;
2934;SDS011;2462;51.456;7.248;2022-07-23T13:44:56;7.60;;;4.73;;
2934;SDS011;2462;51.456;7.248;2022-07-23T13:47:22;4.33;;;3.53;;
2934;SDS011;2462;51.456;7.248;2022-07-23T13:49:48;4.17;;;3.63;;
2934;SDS011;2462;51.456;7.248;2022-07-23T13:52:13;4.70;;;3.10;;
2934;SDS011;2462;51.456;7.248;2022-07-23T13:54:39;6.50;;;3.63;;
2934;SDS011;2462;51.456;7.248;2022-07-23T13:57:04;8.50;;;4.00;;
2934;SDS011;2462;51.456;7.248;2022-07-23T13:59:30;4.17;;;3.30;;
2934;SDS011;2462;51.456;7.248;2022-07-23T14:01:56;3.20;;;2.63;;
2934;SDS011;2462;51.456;7.248;2022-07-23T14:04:21;5.23;;;4.10;;
2934;SDS011;2462;51.456;7.248;2022-07-23T14:06:47;3.40;;;2.50;;
2934;SDS011;2462;51.456;7.248;2022-07-23T14:09:12;3.30;;;2.70;;
2934;SDS011;2462;51.456;7.248;2022-07-23T14:11:38;4.27;;;2.40;;
2934;SDS011;2462;51.456;7.248;2022-07-23T14:14:04;4.70;;;2.70;;
2934;SDS011;2462;51.456;7.248;2022-07-23T14:16:30;6.10;;;2.70;;
2934;SDS011;2462;51.456;7.248;2022-07-23T14:18:55;2.90;;;2.30;;
2934;SDS011;2462;51.456;7.248;2022-07-23T14:21:21;2.87;;;2.20;;
2934;SDS011;2462;51.456;7.248;2022-07-23T14:23:46;3.97;;;2.17;;
2934;SDS011;2462;51.456;7.248;2022-07-23T14:26:12;3.00;;;2.73;;
2934;SDS011;2462;51.456;7.248;2022-07-23T14:28:38;2.60;;;2.40;;
2934;SDS011;2462;51.456;7.248;2022-07-23T14:31:03;3.20;;;2.90;;
2934;SDS011;2462;51.456;7.248;2022-07-23T14:33:29;2.90;;;2.70;;
2934;SDS011;2462;51.456;7.248;2022-07-23T14:35:54;3.20;;;2.90;;
2934;SDS011;2462;51.456;7.248;2022-07-23T14:38:20;3.43;;;2.53;;
2934;SDS011;2462;51.456;7.248;2022-07-23T14:40:46;3.30;;;3.00;;
2934;SDS011;2462;51.456;7.248;2022-07-23T14:43:11;9.53;;;3.30;;
2934;SDS011;2462;51.456;7.248;2022-07-23T14:45:37;3.20;;;2.90;;
2934;SDS011;2462;51.456;7.248;2022-07-23T14:48:02;3.07;;;2.60;;
2934;SDS011;2462;51.456;7.248;2022-07-23T14:50:28;5.80;;;3.10;;
2934;SDS011;2462;51.456;7.248;2022-07-23T14:52:54;5.00;;;3.30;;
2934;SDS011;2462;51.456;7.248;2022-07-23T14:55:19;4.17;;;3.03;;
2934;SDS011;2462;51.456;7.248;2022-07-23T14:57:45;3.43;;;3.13;;
2934;SDS011;2462;51.456;7.248;2022-07-23T15:00:11;2.80;;;2.60;;
2934;SDS011;2462;51.456;7.248;2022-07-23T15:02:37;3.07;;;2.87;;
2934;SDS011;2462;51.456;7.248;2022-07-23T15:05:03;4.27;;;3.87;;
2934;SDS011;2462;51.456;7.248;2022-07-23T15:07:29;3.40;;;3.10;;
2934;SDS011;2462;51.456;7.248;2022-07-23T15:09:55;3.83;;;3.30;;
2934;SDS011;2462;51.456;7.248;2022-07-23T15:12:21;5.53;;;2.97;;
2934;SDS011;2462;51.456;7.248;2022-07-23T15:14:47;3.30;;;2.90;;
2934;SDS011;2462;51.456;7.248;2022-07-23T15:17:12;4.50;;;2.67;;
2934;SDS011;2462;51.456;7.248;2022-07-23T15:19:38;3.23;;;2.93;;
2934;SDS011;2462;51.456;7.248;2022-07-23T15:22:03;5.13;;;3.60;;
2934;SDS011;2462;51.456;7.248;2022-07-23T15:24:29;4.60;;;3.00;;
2934;SDS011;2462;51.456;7.248;2022-07-23T15:26:55;2.90;;;2.60;;
2934;SDS011;2462;51.456;7.248;2022-07-23T15:29:21;2.90;;;2.67;;
2934;SDS011;2462;51.456;7.248;2022-07-23T15:31:47;3.70;;;3.13;;
2934;SDS011;2462;51.456;7.248;2022-07-23T15:34:13;6.70;;;2.90;;
2934;SDS011;2462;51.456;7.248;2022-07-23T15:36:38;4.00;;;3.23;;
2934;SDS011;2462;51.456;7.248;2022-07-23T15:39:04;3.07;;;2.77;;
2934;SDS011;2462;51.456;7.248;2022-07-23T15:41:30;3.50;;;2.90;;
2934;SDS011;2462;51.456;7.248;2022-07-23T15:43:56;3.00;;;2.77;;
2934;SDS011;2462;51.456;7.248;2022-07-23T15:46:22;3.47;;;3.17;;
2934;SDS011;2462;51.456;7.248;2022-07-23T15:48:48;3.30;;;3.00;;
2934;SDS011;2462;51.456;7.248;2022-07-23T15:51:13;3.30;;;3.00;;
2934;SDS011;2462;51.456;7.248;2022-07-23T15:53:40;4.43;;;3.27;;
2934;SDS011;2462;51.456;7.248;2022-07-23T15:56:06;3.90;;;3.10;;